Baxter, Kentucky
Current Conditions -  °F | °C
As of 9:55 AM on Saturday 01 Nov 2014 (Local Time) from KI35 Reporting Station
Overcast Overcast  
Wind Chill: 26°   Ceiling: 1200
Heat Index: 32°   Visibility: 1mi
Dew Point: 32°   Wind: 7mph
Humidity: 100%   Direction: 300°WNW
Pressure: 30.04"   Gusts: 17mph
Location:  36.86°N, 83.33°W
Report Text: KI35 011355Z AUTO 30006G15KT 1SM OVC012 00/00 A3004 RMK AO1
Loading
Personal Weather Stations






























Interactive Weather Map
Tropical Storm Tracking
New forecast layout! Learn more

10-Day Weather Forecast

Advertisements
Track Severe Weather on mobile